Time,TemperatureF,DewpointF,PressureIn,WindDirection,WindDirectionDegrees,WindSpeedMPH,WindSpeedGustMPH,Humidity,HourlyPrecipIn,Conditions,Clouds,dailyrainin,SoftwareType,DateUTC
2013-11-28 00:05:00,31.4,28.8,30.65,NNE,19,2.0,2.0,90,0.00,,,0.00,Wunderground v.1.15,2013-11-28 07:05:00,
2013-11-28 00:15:00,31.7,29.1,30.65,NNW,342,3.0,3.0,90,0.00,,,0.00,Wunderground v.1.15,2013-11-28 07:15:00,
2013-11-28 00:25:00,31.7,29.1,30.64,NNW,330,3.0,3.0,90,0.00,,,0.00,Wunderground v.1.15,2013-11-28 07:25:00,
2013-11-28 00:35:00,31.8,29.2,30.64,NNW,340,3.0,3.0,90,0.00,,,0.00,Wunderground v.1.15,2013-11-28 07:35:00,
2013-11-28 00:45:00,31.7,28.8,30.64,NW,318,2.0,2.0,89,0.00,,,0.00,Wunderground v.1.15,2013-11-28 07:45:00,
2013-11-28 00:51:00,31.6,28.7,30.64,North,349,2.0,2.0,89,0.00,,,0.00,Wunderground v.1.15,2013-11-28 07:51:00,
2013-11-28 01:05:00,31.1,28.2,30.65,WNW,294,2.0,2.0,89,0.00,,,0.00,Wunderground v.1.15,2013-11-28 08:05:00,
2013-11-28 01:11:00,30.8,28.2,30.65,WNW,300,2.0,2.0,90,0.00,,,0.00,Wunderground v.1.15,2013-11-28 08:11:00,
2013-11-28 01:25:00,31.0,28.4,30.65,NNW,340,2.0,2.0,90,0.00,,,0.00,Wunderground v.1.15,2013-11-28 08:25:00,
2013-11-28 01:35:00,31.4,28.8,30.65,NNW,348,3.0,3.0,90,0.00,,,0.00,Wunderground v.1.15,2013-11-28 08:35:00,
2013-11-28 01:41:00,31.6,28.7,30.65,NNE,27,3.0,4.0,89,0.00,,,0.00,Wunderground v.1.15,2013-11-28 08:41:00,
2013-11-28 01:55:00,32.0,28.8,30.64,NE,34,4.0,4.0,88,0.00,,,0.00,Wunderground v.1.15,2013-11-28 08:55:00,
2013-11-28 02:05:00,31.8,28.4,30.65,NE,36,4.0,4.0,87,0.00,,,0.00,Wunderground v.1.15,2013-11-28 09:05:00,
2013-11-28 02:11:00,31.5,28.1,30.65,NNE,25,4.0,4.0,87,0.00,,,0.00,Wunderground v.1.15,2013-11-28 09:11:00,
2013-11-28 02:25:00,31.0,27.9,30.65,NNW,343,3.0,3.0,88,0.00,,,0.00,Wunderground v.1.15,2013-11-28 09:25:00,
2013-11-28 02:31:00,31.2,28.1,30.65,NNE,23,3.0,4.0,88,0.00,,,0.00,Wunderground v.1.15,2013-11-28 09:31:00,
2013-11-28 02:45:00,31.0,27.6,30.65,NE,39,2.0,2.0,87,0.00,,,0.00,Wunderground v.1.15,2013-11-28 09:45:00,
2013-11-28 02:55:00,30.7,27.3,30.65,NW,304,2.0,2.0,87,0.00,,,0.00,Wunderground v.1.15,2013-11-28 09:55:00,
2013-11-28 03:01:00,30.4,27.3,30.65,ENE,68,2.0,2.0,88,0.00,,,0.00,Wunderground v.1.15,2013-11-28 10:01:00,
2013-11-28 03:15:00,29.6,26.8,30.65,NNE,14,2.0,5.0,89,0.00,,,0.00,Wunderground v.1.15,2013-11-28 10:15:00,
2013-11-28 03:21:00,29.5,26.7,30.65,NNE,22,2.0,5.0,89,0.00,,,0.00,Wunderground v.1.15,2013-11-28 10:21:00,
2013-11-28 03:35:00,29.4,26.6,30.64,WNW,299,3.0,3.0,89,0.00,,,0.00,Wunderground v.1.15,2013-11-28 10:35:00,
2013-11-28 03:41:00,29.0,26.4,30.65,NNE,20,3.0,3.0,90,0.00,,,0.00,Wunderground v.1.15,2013-11-28 10:41:00,
2013-11-28 03:55:00,28.8,26.5,30.66,WNW,294,2.0,2.0,91,0.00,,,0.00,Wunderground v.1.15,2013-11-28 10:55:00,
2013-11-28 04:05:00,29.2,26.9,30.65,NNE,25,2.0,3.0,91,0.00,,,0.00,Wunderground v.1.15,2013-11-28 11:05:00,
2013-11-28 04:11:00,29.7,27.1,30.64,NNE,30,4.0,6.0,90,0.00,,,0.00,Wunderground v.1.15,2013-11-28 11:11:00,
2013-11-28 04:25:00,30.2,27.1,30.63,North,4,5.0,5.0,88,0.00,,,0.00,Wunderground v.1.15,2013-11-28 11:25:00,
2013-11-28 04:31:00,30.5,27.1,30.63,North,356,5.0,5.0,87,0.00,,,0.00,Wunderground v.1.15,2013-11-28 11:31:00,
2013-11-28 04:45:00,29.5,26.1,30.64,North,356,3.0,3.0,87,0.00,,,0.00,Wunderground v.1.15,2013-11-28 11:45:00,
2013-11-28 04:55:00,28.9,25.8,30.65,NW,312,0.0,1.0,88,0.00,,,0.00,Wunderground v.1.15,2013-11-28 11:55:00,
2013-11-28 05:05:00,28.3,25.7,30.65,NW,309,1.0,1.0,90,0.00,,,0.00,Wunderground v.1.15,2013-11-28 12:05:00,
2013-11-28 05:15:00,28.2,25.6,30.65,NNE,30,2.0,2.0,90,0.00,,,0.00,Wunderground v.1.15,2013-11-28 12:15:00,
2013-11-28 05:21:00,28.3,25.7,30.65,NNE,15,2.0,2.0,90,0.00,,,0.00,Wunderground v.1.15,2013-11-28 12:21:00,
2013-11-28 05:35:00,28.8,26.2,30.64,North,356,3.0,3.0,90,0.00,,,0.00,Wunderground v.1.15,2013-11-28 12:35:00,
2013-11-28 05:45:00,28.6,25.8,30.64,NNE,20,3.0,3.0,89,0.00,,,0.00,Wunderground v.1.15,2013-11-28 12:45:00,
2013-11-28 05:55:00,28.1,25.3,30.64,NE,34,3.0,3.0,89,0.00,,,0.00,Wunderground v.1.15,2013-11-28 12:55:00,
2013-11-28 06:05:00,27.6,25.1,30.64,NW,321,2.0,2.0,90,0.00,,,0.00,Wunderground v.1.15,2013-11-28 13:05:00,
2013-11-28 06:11:00,27.4,24.9,30.64,NNW,335,2.0,3.0,90,0.00,,,0.00,Wunderground v.1.15,2013-11-28 13:11:00,
2013-11-28 06:25:00,27.3,25.0,30.65,North,4,2.0,3.0,91,0.00,,,0.00,Wunderground v.1.15,2013-11-28 13:25:00,
2013-11-28 06:31:00,27.4,25.1,30.65,North,352,2.0,3.0,91,0.00,,,0.00,Wunderground v.1.15,2013-11-28 13:31:00,
2013-11-28 06:45:00,28.0,25.7,30.66,NNW,329,3.0,3.0,91,0.00,,,0.00,Wunderground v.1.15,2013-11-28 13:45:00,
2013-11-28 06:55:00,28.3,25.7,30.66,NE,43,3.0,3.0,90,0.00,,,0.00,Wunderground v.1.15,2013-11-28 13:55:00,
2013-11-28 07:01:00,28.5,25.9,30.66,NNE,24,3.0,6.0,90,0.00,,,0.00,Wunderground v.1.15,2013-11-28 14:01:00,
2013-11-28 07:15:00,28.2,25.6,30.66,North,7,3.0,5.0,90,0.00,,,0.00,Wunderground v.1.15,2013-11-28 14:15:00,
2013-11-28 07:21:00,28.3,25.7,30.67,North,9,3.0,6.0,90,0.00,,,0.00,Wunderground v.1.15,2013-11-28 14:21:00,
2013-11-28 07:35:00,28.5,25.9,30.68,NNE,27,3.0,4.0,90,0.00,,,0.00,Wunderground v.1.15,2013-11-28 14:35:00,
2013-11-28 07:45:00,28.6,26.0,30.68,NNW,327,3.0,3.0,90,0.00,,,0.00,Wunderground v.1.15,2013-11-28 14:45:00,
2013-11-28 07:51:00,28.6,26.0,30.69,NW,320,2.0,3.0,90,0.00,,,0.00,Wunderground v.1.15,2013-11-28 14:51:00,
2013-11-28 08:05:00,29.9,27.3,30.69,North,349,2.0,3.0,90,0.00,,,0.00,Wunderground v.1.15,2013-11-28 15:05:00,
2013-11-28 08:11:00,30.4,27.5,30.68,NNE,20,3.0,3.0,89,0.00,,,0.00,Wunderground v.1.15,2013-11-28 15:11:00,
2013-11-28 08:25:00,31.2,27.8,30.68,WNW,293,3.0,3.0,87,0.00,,,0.00,Wunderground v.1.15,2013-11-28 15:25:00,
2013-11-28 08:35:00,31.6,27.9,30.68,North,360,4.0,4.0,86,0.00,,,0.00,Wunderground v.1.15,2013-11-28 15:35:00,
2013-11-28 08:41:00,31.9,27.9,30.68,North,356,4.0,4.0,85,0.00,,,0.00,Wunderground v.1.15,2013-11-28 15:41:00,
2013-11-28 08:55:00,32.9,28.0,30.68,NNW,343,3.0,3.0,82,0.00,,,0.00,Wunderground v.1.15,2013-11-28 15:55:00,
2013-11-28 09:05:00,33.8,28.6,30.68,NW,314,4.0,4.0,81,0.00,,,0.00,Wunderground v.1.15,2013-11-28 16:05:00,
2013-11-28 09:15:00,34.9,29.0,30.69,NW,308,2.0,4.0,79,0.00,,,0.00,Wunderground v.1.15,2013-11-28 16:15:00,
2013-11-28 09:25:00,36.0,29.5,30.69,NW,314,2.0,2.0,77,0.00,,,0.00,Wunderground v.1.15,2013-11-28 16:25:00,
2013-11-28 09:31:00,36.6,29.4,30.69,NNE,23,2.0,3.0,75,0.00,,,0.00,Wunderground v.1.15,2013-11-28 16:31:00,
2013-11-28 09:45:00,38.0,29.8,30.69,North,359,3.0,5.0,72,0.00,,,0.00,Wunderground v.1.15,2013-11-28 16:45:00,
2013-11-28 09:55:00,38.5,29.6,30.69,NW,306,3.0,4.0,70,0.00,,,0.00,Wunderground v.1.15,2013-11-28 16:55:00,
2013-11-28 10:05:00,39.5,30.2,30.69,NNE,16,2.0,3.0,69,0.00,,,0.00,Wunderground v.1.15,2013-11-28 17:05:00,
2013-11-28 10:11:00,40.0,30.3,30.69,North,11,3.0,4.0,68,0.00,,,0.00,Wunderground v.1.15,2013-11-28 17:11:00,
2013-11-28 10:25:00,42.0,31.8,30.69,NE,35,2.0,2.0,67,0.00,,,0.00,Wunderground v.1.15,2013-11-28 17:25:00,
2013-11-28 10:35:00,42.5,31.2,30.69,North,5,2.0,4.0,64,0.00,,,0.00,Wunderground v.1.15,2013-11-28 17:35:00,
2013-11-28 10:45:00,43.4,31.6,30.69,NE,56,2.0,2.0,63,0.00,,,0.00,Wunderground v.1.15,2013-11-28 17:45:00,
2013-11-28 10:55:00,44.2,31.2,30.68,NW,307,2.0,2.0,60,0.00,,,0.00,Wunderground v.1.15,2013-11-28 17:55:00,
2013-11-28 11:01:00,44.5,30.2,30.68,ENE,61,2.0,2.0,57,0.00,,,0.00,Wunderground v.1.15,2013-11-28 18:01:00,
2013-11-28 11:15:00,45.7,30.4,30.68,NW,312,1.0,2.0,55,0.00,,,0.00,Wunderground v.1.15,2013-11-28 18:15:00,
2013-11-28 11:25:00,46.6,29.4,30.68,NW,314,1.0,1.0,51,0.00,,,0.00,Wunderground v.1.15,2013-11-28 18:25:00,
2013-11-28 11:35:00,47.3,29.1,30.67,NW,310,1.0,1.0,49,0.00,,,0.00,Wunderground v.1.15,2013-11-28 18:35:00,
2013-11-28 11:45:00,48.5,30.2,30.67,WNW,302,1.0,1.0,49,0.00,,,0.00,Wunderground v.1.15,2013-11-28 18:45:00,
2013-11-28 11:51:00,49.3,30.9,30.66,ESE,122,0.0,1.0,49,0.00,,,0.00,Wunderground v.1.15,2013-11-28 18:51:00,
2013-11-28 12:05:00,50.1,30.1,30.66,NW,311,1.0,1.0,46,0.00,,,0.00,Wunderground v.1.15,2013-11-28 19:05:00,
2013-11-28 12:15:00,50.6,30.6,30.65,West,276,1.0,1.0,46,0.00,,,0.00,Wunderground v.1.15,2013-11-28 19:15:00,
2013-11-28 12:25:00,52.6,30.1,30.64,SE,124,1.0,1.0,42,0.00,,,0.00,Wunderground v.1.15,2013-11-28 19:25:00,
2013-11-28 12:31:00,53.1,30.6,30.64,SE,145,1.0,1.0,42,0.00,,,0.00,Wunderground v.1.15,2013-11-28 19:31:00,
2013-11-28 12:45:00,53.6,30.4,30.62,ESE,113,2.0,2.0,41,0.00,,,0.00,Wunderground v.1.15,2013-11-28 19:45:00,
2013-11-28 12:55:00,54.5,30.0,30.62,SSW,213,2.0,2.0,39,0.00,,,0.00,Wunderground v.1.15,2013-11-28 19:55:00,
2013-11-28 13:05:00,54.7,29.6,30.61,South,173,2.0,2.0,38,0.00,,,0.00,Wunderground v.1.15,2013-11-28 20:05:00,
2013-11-28 13:15:00,55.2,30.0,30.61,SW,229,3.0,3.0,38,0.00,,,0.00,Wunderground v.1.15,2013-11-28 20:15:00,
2013-11-28 13:21:00,55.8,29.9,30.61,SSW,194,2.0,4.0,37,0.00,,,0.00,Wunderground v.1.15,2013-11-28 20:21:00,
2013-11-28 13:35:00,56.3,29.7,30.61,SSW,200,4.0,4.0,36,0.00,,,0.00,Wunderground v.1.15,2013-11-28 20:35:00,
2013-11-28 13:41:00,56.7,28.6,30.61,SW,222,4.0,4.0,34,0.00,,,0.00,Wunderground v.1.15,2013-11-28 20:41:00,
2013-11-28 13:55:00,56.9,28.1,30.60,SW,225,4.0,6.0,33,0.00,,,0.00,Wunderground v.1.15,2013-11-28 20:55:00,
2013-11-28 14:05:00,57.0,28.9,30.60,SW,233,5.0,5.0,34,0.00,,,0.00,Wunderground v.1.15,2013-11-28 21:05:00,
2013-11-28 14:11:00,57.1,28.2,30.60,SW,225,4.0,6.0,33,0.00,,,0.00,Wunderground v.1.15,2013-11-28 21:11:00,
2013-11-28 14:25:00,57.8,28.1,30.60,SW,217,4.0,8.0,32,0.00,,,0.00,Wunderground v.1.15,2013-11-28 21:25:00,
2013-11-28 14:31:00,57.5,28.6,30.60,South,180,5.0,10.0,33,0.00,,,0.00,Wunderground v.1.15,2013-11-28 21:31:00,
2013-11-28 14:45:00,57.4,27.7,30.60,WSW,250,5.0,5.0,32,0.00,,,0.00,Wunderground v.1.15,2013-11-28 21:45:00,
2013-11-28 14:55:00,57.4,27.7,30.60,SW,234,5.0,5.0,32,0.00,,,0.00,Wunderground v.1.15,2013-11-28 21:55:00,
2013-11-28 15:01:00,57.6,27.9,30.60,SSW,210,4.0,4.0,32,0.00,,,0.00,Wunderground v.1.15,2013-11-28 22:01:00,
2013-11-28 15:15:00,57.6,27.2,30.60,SSW,197,5.0,5.0,31,0.00,,,0.00,Wunderground v.1.15,2013-11-28 22:15:00,
2013-11-28 15:25:00,57.1,27.5,30.60,SSW,200,5.0,6.0,32,0.00,,,0.00,Wunderground v.1.15,2013-11-28 22:25:00,
2013-11-28 15:35:00,57.2,27.6,30.61,SSE,155,4.0,4.0,32,0.00,,,0.00,Wunderground v.1.15,2013-11-28 22:35:00,
2013-11-28 15:45:00,56.8,27.2,30.61,SE,145,5.0,6.0,32,0.00,,,0.00,Wunderground v.1.15,2013-11-28 22:45:00,
2013-11-28 15:51:00,56.8,27.2,30.61,SW,224,4.0,6.0,32,0.00,,,0.00,Wunderground v.1.15,2013-11-28 22:51:00,
2013-11-28 16:05:00,56.3,26.8,30.61,SSW,198,4.0,6.0,32,0.00,,,0.00,Wunderground v.1.15,2013-11-28 23:05:00,
2013-11-28 16:11:00,56.2,27.4,30.61,South,172,4.0,6.0,33,0.00,,,0.00,Wunderground v.1.15,2013-11-28 23:11:00,
2013-11-28 16:25:00,56.1,27.4,30.62,SW,230,3.0,3.0,33,0.00,,,0.00,Wunderground v.1.15,2013-11-28 23:25:00,
2013-11-28 16:35:00,55.7,27.7,30.62,SW,225,3.0,4.0,34,0.00,,,0.00,Wunderground v.1.15,2013-11-28 23:35:00,
2013-11-28 16:41:00,55.7,28.4,30.62,SW,214,2.0,4.0,35,0.00,,,0.00,Wunderground v.1.15,2013-11-28 23:41:00,
2013-11-28 16:55:00,54.9,28.4,30.62,SW,219,1.0,3.0,36,0.00,,,0.00,Wunderground v.1.15,2013-11-28 23:55:00,
2013-11-28 17:01:00,54.4,28.6,30.62,SW,224,1.0,1.0,37,0.00,,,0.00,Wunderground v.1.15,2013-11-29 00:01:00,
2013-11-28 17:15:00,52.1,28.5,30.63,SW,222,0.0,0.0,40,0.00,,,0.00,Wunderground v.1.15,2013-11-29 00:15:00,
2013-11-28 17:25:00,49.6,28.0,30.63,SW,231,0.0,0.0,43,0.00,,,0.00,Wunderground v.1.15,2013-11-29 00:25:00,
2013-11-28 17:35:00,47.7,27.9,30.63,SW,229,0.0,0.0,46,0.00,,,0.00,Wunderground v.1.15,2013-11-29 00:35:00,
2013-11-28 17:45:00,46.5,27.8,30.64,SW,219,0.0,0.0,48,0.00,,,0.00,Wunderground v.1.15,2013-11-29 00:45:00,
2013-11-28 17:51:00,45.7,28.1,30.64,SW,214,0.0,0.0,50,0.00,,,0.00,Wunderground v.1.15,2013-11-29 00:51:00,
2013-11-28 18:05:00,45.1,28.0,30.65,SSE,149,0.0,0.0,51,0.00,,,0.00,Wunderground v.1.15,2013-11-29 01:05:00,
2013-11-28 18:15:00,44.3,27.8,30.65,ESE,121,0.0,0.0,52,0.00,,,0.00,Wunderground v.1.15,2013-11-29 01:15:00,
2013-11-28 18:21:00,44.1,28.0,30.65,ESE,113,0.0,0.0,53,0.00,,,0.00,Wunderground v.1.15,2013-11-29 01:21:00,
2013-11-28 18:35:00,43.6,28.0,30.66,SE,132,0.0,0.0,54,0.00,,,0.00,Wunderground v.1.15,2013-11-29 01:35:00,
2013-11-28 18:41:00,43.2,28.1,30.66,ESE,120,0.0,0.0,55,0.00,,,0.00,Wunderground v.1.15,2013-11-29 01:41:00,
2013-11-28 18:55:00,43.2,28.1,30.66,SE,139,2.0,2.0,55,0.00,,,0.00,Wunderground v.1.15,2013-11-29 01:55:00,
2013-11-28 19:01:00,42.9,27.8,30.66,SE,135,1.0,1.0,55,0.00,,,0.00,Wunderground v.1.15,2013-11-29 02:01:00,
2013-11-28 19:11:00,41.9,27.8,30.67,SE,135,1.0,1.0,57,0.00,,,0.00,Wunderground v.1.15,2013-11-29 02:11:00,
2013-11-28 19:25:00,40.9,27.2,30.67,SE,134,1.0,1.0,58,0.00,,,0.00,Wunderground v.1.15,2013-11-29 02:25:00,
2013-11-28 19:31:00,40.6,27.4,30.67,SE,133,1.0,1.0,59,0.00,,,0.00,Wunderground v.1.15,2013-11-29 02:31:00,
2013-11-28 19:45:00,40.5,27.3,30.68,SE,129,1.0,2.0,59,0.00,,,0.00,Wunderground v.1.15,2013-11-29 02:45:00,
2013-11-28 19:55:00,40.6,27.4,30.68,SE,141,2.0,2.0,59,0.00,,,0.00,Wunderground v.1.15,2013-11-29 02:55:00,
2013-11-28 20:05:00,40.2,27.0,30.68,SSE,150,1.0,1.0,59,0.00,,,0.00,Wunderground v.1.15,2013-11-29 03:05:00,
2013-11-28 20:15:00,39.5,27.2,30.69,SE,139,1.0,1.0,61,0.00,,,0.00,Wunderground v.1.15,2013-11-29 03:15:00,
2013-11-28 20:21:00,39.1,26.8,30.69,SE,128,1.0,1.0,61,0.00,,,0.00,Wunderground v.1.15,2013-11-29 03:21:00,
2013-11-28 20:35:00,39.4,27.1,30.70,SSE,147,1.0,1.0,61,0.00,,,0.00,Wunderground v.1.15,2013-11-29 03:35:00,
2013-11-28 20:45:00,38.9,27.0,30.70,SE,126,1.0,1.0,62,0.00,,,0.00,Wunderground v.1.15,2013-11-29 03:45:00,
2013-11-28 20:51:00,38.9,27.0,30.70,SSE,153,1.0,2.0,62,0.00,,,0.00,Wunderground v.1.15,2013-11-29 03:51:00,
2013-11-28 21:05:00,39.0,27.1,30.70,SE,129,1.0,1.0,62,0.00,,,0.00,Wunderground v.1.15,2013-11-29 04:05:00,
2013-11-28 21:11:00,39.1,26.8,30.70,ESE,114,1.0,2.0,61,0.00,,,0.00,Wunderground v.1.15,2013-11-29 04:11:00,
2013-11-28 21:21:00,39.5,27.2,30.70,SE,142,1.0,2.0,61,0.00,,,0.00,Wunderground v.1.15,2013-11-29 04:21:00,
2013-11-28 21:35:00,39.7,26.9,30.71,SE,128,1.0,1.0,60,0.00,,,0.00,Wunderground v.1.15,2013-11-29 04:35:00,
2013-11-28 21:40:00,39.5,26.8,30.71,ESE,121,0.0,1.0,60,0.00,,,0.00,Wunderground v.1.15,2013-11-29 04:40:00,
2013-11-28 21:51:00,38.3,26.4,30.72,ESE,122,0.0,0.0,62,0.00,,,0.00,Wunderground v.1.15,2013-11-29 04:51:00,
2013-11-28 22:05:00,35.4,26.2,30.72,ENE,72,0.0,0.0,69,0.00,,,0.00,Wunderground v.1.15,2013-11-29 05:05:00,
2013-11-28 22:11:00,34.6,26.2,30.72,ENE,72,0.0,0.0,71,0.00,,,0.00,Wunderground v.1.15,2013-11-29 05:11:00,
2013-11-28 22:15:00,34.0,25.9,30.72,ENE,72,0.0,0.0,72,0.00,,,0.00,Wunderground v.1.15,2013-11-29 05:15:00,
2013-11-28 22:25:00,33.5,26.4,30.73,ENE,72,0.0,0.0,75,0.00,,,0.00,Wunderground v.1.15,2013-11-29 05:25:00,
2013-11-28 22:31:00,34.0,26.6,30.73,ENE,74,0.0,0.0,74,0.00,,,0.00,Wunderground v.1.15,2013-11-29 05:31:00,
2013-11-28 22:45:00,33.9,26.5,30.73,ENE,74,0.0,0.0,74,0.00,,,0.00,Wunderground v.1.15,2013-11-29 05:45:00,
2013-11-28 22:55:00,34.1,26.3,30.73,North,8,0.0,0.0,73,0.00,,,0.00,Wunderground v.1.15,2013-11-29 05:55:00,
2013-11-28 23:15:00,31.7,26.2,30.74,North,355,0.0,1.0,80,0.00,,,0.00,Wunderground v.1.15,2013-11-29 06:15:00,
2013-11-28 23:21:00,32.1,27.5,30.74,North,356,0.0,1.0,83,0.00,,,0.00,Wunderground v.1.15,2013-11-29 06:21:00,
2013-11-28 23:35:00,31.8,27.5,30.74,NW,320,1.0,2.0,84,0.00,,,0.00,Wunderground v.1.15,2013-11-29 06:35:00,
2013-11-28 23:41:00,32.2,27.9,30.74,NNW,338,2.0,2.0,84,0.00,,,0.00,Wunderground v.1.15,2013-11-29 06:41:00,
2013-11-28 23:55:00,32.2,28.2,30.74,NNW,339,2.0,2.0,85,0.00,,,0.00,Wunderground v.1.15,2013-11-29 06:55:00,